TAF Text Data
IDs:
Format:
Raw Decoded Include METAR

Data at: 0758 UTC 27 Feb 2020

KATL 270757Z 2708/2812 30015G24KT P6SM SCT025 OVC040
  FM271500 31013G23KT P6SM BKN050
  FM271800 31012G20KT P6SM SCT050
  FM280100 28007KT P6SM SKC